sensor_id;sensor_type;location;lat;lon;timestamp;pressure;altitude;pressure_sealevel;temperature;humidity
58771;BME280;44539;42.962;1.596;2023-04-05T00:00:35;97392.09;;;3.32;100.00
58771;BME280;44539;42.962;1.596;2023-04-05T00:03:01;97389.94;;;3.25;100.00
58771;BME280;44539;42.962;1.596;2023-04-05T00:05:27;97388.84;;;3.39;100.00
58771;BME280;44539;42.962;1.596;2023-04-05T00:07:59;97389.84;;;3.27;100.00
58771;BME280;44539;42.962;1.596;2023-04-05T00:10:31;97399.75;;;3.23;100.00
58771;BME280;44539;42.962;1.596;2023-04-05T00:12:57;97395.75;;;2.97;100.00
58771;BME280;44539;42.962;1.596;2023-04-05T00:15:23;97397.88;;;2.92;100.00
58771;BME280;44539;42.962;1.596;2023-04-05T00:17:48;97385.00;;;2.77;100.00
58771;BME280;44539;42.962;1.596;2023-04-05T00:20:14;97398.03;;;2.79;100.00
58771;BME280;44539;42.962;1.596;2023-04-05T00:22:40;97394.44;;;2.69;100.00
58771;BME280;44539;42.962;1.596;2023-04-05T00:25:09;97395.41;;;2.79;100.00
58771;BME280;44539;42.962;1.596;2023-04-05T00:27:34;97392.31;;;2.62;100.00
58771;BME280;44539;42.962;1.596;2023-04-05T00:30:00;97396.13;;;2.58;100.00
58771;BME280;44539;42.962;1.596;2023-04-05T00:32:25;97393.75;;;2.33;100.00
58771;BME280;44539;42.962;1.596;2023-04-05T00:34:50;97393.50;;;2.36;100.00
58771;BME280;44539;42.962;1.596;2023-04-05T00:37:16;97394.69;;;2.43;100.00
58771;BME280;44539;42.962;1.596;2023-04-05T00:39:41;97390.16;;;2.34;100.00
58771;BME280;44539;42.962;1.596;2023-04-05T00:42:07;97392.16;;;2.30;100.00
58771;BME280;44539;42.962;1.596;2023-04-05T00:44:33;97391.34;;;2.18;100.00
58771;BME280;44539;42.962;1.596;2023-04-05T00:47:01;97389.91;;;2.37;100.00
58771;BME280;44539;42.962;1.596;2023-04-05T00:49:28;97383.97;;;2.57;100.00
58771;BME280;44539;42.962;1.596;2023-04-05T00:51:55;97384.94;;;2.56;100.00
58771;BME280;44539;42.962;1.596;2023-04-05T00:54:21;97382.19;;;2.47;100.00
58771;BME280;44539;42.962;1.596;2023-04-05T00:56:47;97380.88;;;2.52;100.00
58771;BME280;44539;42.962;1.596;2023-04-05T00:59:13;97389.22;;;2.35;100.00
58771;BME280;44539;42.962;1.596;2023-04-05T01:01:39;97376.22;;;2.33;100.00
58771;BME280;44539;42.962;1.596;2023-04-05T01:04:05;97376.69;;;2.16;100.00
58771;BME280;44539;42.962;1.596;2023-04-05T01:07:12;97369.91;;;2.24;100.00
58771;BME280;44539;42.962;1.596;2023-04-05T01:10:00;97369.91;;;2.36;100.00
58771;BME280;44539;42.962;1.596;2023-04-05T01:12:30;97368.00;;;2.49;100.00
58771;BME280;44539;42.962;1.596;2023-04-05T01:14:57;97373.34;;;2.36;100.00
58771;BME280;44539;42.962;1.596;2023-04-05T01:17:24;97373.00;;;2.41;100.00
58771;BME280;44539;42.962;1.596;2023-04-05T01:19:59;97372.94;;;1.96;100.00
58771;BME280;44539;42.962;1.596;2023-04-05T01:30:40;97369.94;;;1.78;100.00
58771;BME280;44539;42.962;1.596;2023-04-05T01:34:12;97363.44;;;1.95;100.00
58771;BME280;44539;42.962;1.596;2023-04-05T01:36:24;97367.13;;;2.03;100.00
58771;BME280;44539;42.962;1.596;2023-04-05T01:38:52;97358.41;;;1.92;100.00
58771;BME280;44539;42.962;1.596;2023-04-05T01:41:18;97353.41;;;1.89;100.00
58771;BME280;44539;42.962;1.596;2023-04-05T01:43:44;97346.00;;;1.82;100.00
58771;BME280;44539;42.962;1.596;2023-04-05T01:46:09;97349.81;;;1.90;100.00
58771;BME280;44539;42.962;1.596;2023-04-05T01:48:35;97348.06;;;2.01;100.00
58771;BME280;44539;42.962;1.596;2023-04-05T01:51:00;97344.47;;;1.91;100.00
58771;BME280;44539;42.962;1.596;2023-04-05T01:53:25;97348.03;;;1.79;100.00
58771;BME280;44539;42.962;1.596;2023-04-05T01:55:51;97353.25;;;1.68;100.00
58771;BME280;44539;42.962;1.596;2023-04-05T01:58:16;97347.91;;;1.80;100.00
58771;BME280;44539;42.962;1.596;2023-04-05T02:00:41;97352.31;;;1.80;100.00
58771;BME280;44539;42.962;1.596;2023-04-05T02:03:07;97357.38;;;1.59;100.00
58771;BME280;44539;42.962;1.596;2023-04-05T02:05:32;97356.09;;;1.65;100.00
58771;BME280;44539;42.962;1.596;2023-04-05T02:07:58;97354.84;;;1.46;100.00
58771;BME280;44539;42.962;1.596;2023-04-05T02:10:23;97349.69;;;1.69;100.00
58771;BME280;44539;42.962;1.596;2023-04-05T02:12:49;97347.53;;;1.62;100.00
58771;BME280;44539;42.962;1.596;2023-04-05T02:15:14;97353.56;;;1.52;100.00
58771;BME280;44539;42.962;1.596;2023-04-05T02:17:41;97343.59;;;1.68;100.00
58771;BME280;44539;42.962;1.596;2023-04-05T02:20:10;97352.56;;;1.41;100.00
58771;BME280;44539;42.962;1.596;2023-04-05T02:22:38;97342.59;;;1.58;100.00
58771;BME280;44539;42.962;1.596;2023-04-05T02:25:05;97339.44;;;1.30;100.00
58771;BME280;44539;42.962;1.596;2023-04-05T02:27:33;97352.84;;;1.26;100.00
58771;BME280;44539;42.962;1.596;2023-04-05T02:29:58;97347.94;;;1.21;100.00
58771;BME280;44539;42.962;1.596;2023-04-05T02:32:24;97350.13;;;1.27;100.00
58771;BME280;44539;42.962;1.596;2023-04-05T02:34:49;97354.00;;;1.21;100.00
58771;BME280;44539;42.962;1.596;2023-04-05T02:37:17;97349.63;;;1.22;100.00
58771;BME280;44539;42.962;1.596;2023-04-05T02:39:42;97354.06;;;1.09;100.00
58771;BME280;44539;42.962;1.596;2023-04-05T02:42:08;97349.47;;;1.12;100.00
58771;BME280;44539;42.962;1.596;2023-04-05T02:44:33;97341.53;;;1.25;100.00
58771;BME280;44539;42.962;1.596;2023-04-05T02:46:58;97350.47;;;1.22;100.00
58771;BME280;44539;42.962;1.596;2023-04-05T02:49:24;97360.25;;;1.08;100.00
58771;BME280;44539;42.962;1.596;2023-04-05T02:51:49;97361.75;;;1.23;100.00
58771;BME280;44539;42.962;1.596;2023-04-05T02:54:15;97357.94;;;1.16;100.00
58771;BME280;44539;42.962;1.596;2023-04-05T02:56:40;97362.28;;;1.28;100.00
58771;BME280;44539;42.962;1.596;2023-04-05T02:59:06;97363.09;;;1.29;100.00
58771;BME280;44539;42.962;1.596;2023-04-05T03:01:32;97368.22;;;1.30;100.00
58771;BME280;44539;42.962;1.596;2023-04-05T03:04:01;97364.47;;;1.21;100.00
58771;BME280;44539;42.962;1.596;2023-04-05T03:06:26;97364.16;;;1.26;100.00
58771;BME280;44539;42.962;1.596;2023-04-05T03:08:51;97365.09;;;1.25;100.00
58771;BME280;44539;42.962;1.596;2023-04-05T03:11:18;97365.47;;;1.32;100.00
58771;BME280;44539;42.962;1.596;2023-04-05T03:13:43;97369.25;;;1.28;100.00
58771;BME280;44539;42.962;1.596;2023-04-05T03:16:09;97356.75;;;1.20;100.00
58771;BME280;44539;42.962;1.596;2023-04-05T03:18:35;97366.38;;;1.19;100.00
58771;BME280;44539;42.962;1.596;2023-04-05T03:21:00;97365.06;;;1.14;100.00
58771;BME280;44539;42.962;1.596;2023-04-05T03:23:29;97372.13;;;1.00;100.00
58771;BME280;44539;42.962;1.596;2023-04-05T03:26:02;97364.81;;;0.93;100.00
58771;BME280;44539;42.962;1.596;2023-04-05T03:28:31;97363.22;;;1.03;100.00
58771;BME280;44539;42.962;1.596;2023-04-05T03:30:57;97363.84;;;0.94;100.00
58771;BME280;44539;42.962;1.596;2023-04-05T03:33:22;97372.03;;;0.89;100.00
58771;BME280;44539;42.962;1.596;2023-04-05T03:35:48;97375.13;;;0.70;100.00
58771;BME280;44539;42.962;1.596;2023-04-05T03:38:14;97372.56;;;0.94;100.00
58771;BME280;44539;42.962;1.596;2023-04-05T03:40:39;97389.56;;;1.00;100.00
58771;BME280;44539;42.962;1.596;2023-04-05T03:43:05;97386.94;;;0.63;100.00
58771;BME280;44539;42.962;1.596;2023-04-05T03:45:30;97390.28;;;0.65;100.00
58771;BME280;44539;42.962;1.596;2023-04-05T03:47:59;97393.13;;;0.75;100.00
58771;BME280;44539;42.962;1.596;2023-04-05T03:50:25;97385.28;;;0.62;100.00
58771;BME280;44539;42.962;1.596;2023-04-05T03:52:51;97390.72;;;0.59;100.00
58771;BME280;44539;42.962;1.596;2023-04-05T03:55:17;97389.06;;;0.58;100.00
58771;BME280;44539;42.962;1.596;2023-04-05T03:57:42;97391.88;;;0.55;100.00
58771;BME280;44539;42.962;1.596;2023-04-05T04:00:09;97392.44;;;0.47;100.00
58771;BME280;44539;42.962;1.596;2023-04-05T04:02:42;97389.34;;;0.66;100.00
58771;BME280;44539;42.962;1.596;2023-04-05T04:05:09;97410.38;;;0.65;100.00
58771;BME280;44539;42.962;1.596;2023-04-05T04:07:35;97388.63;;;0.77;100.00
58771;BME280;44539;42.962;1.596;2023-04-05T04:10:00;97400.53;;;0.68;100.00
58771;BME280;44539;42.962;1.596;2023-04-05T04:12:26;97390.66;;;0.85;100.00
58771;BME280;44539;42.962;1.596;2023-04-05T04:14:51;97400.69;;;0.91;100.00
58771;BME280;44539;42.962;1.596;2023-04-05T04:19:52;97402.81;;;0.86;100.00
58771;BME280;44539;42.962;1.596;2023-04-05T04:22:17;97387.56;;;0.79;100.00
58771;BME280;44539;42.962;1.596;2023-04-05T04:24:45;97387.03;;;0.74;100.00
58771;BME280;44539;42.962;1.596;2023-04-05T04:27:14;97382.25;;;0.55;100.00
58771;BME280;44539;42.962;1.596;2023-04-05T04:29:41;97377.56;;;0.48;100.00
58771;BME280;44539;42.962;1.596;2023-04-05T04:32:12;97385.31;;;0.49;100.00
58771;BME280;44539;42.962;1.596;2023-04-05T04:34:37;97381.88;;;0.36;100.00
58771;BME280;44539;42.962;1.596;2023-04-05T04:37:15;97373.59;;;0.42;100.00
58771;BME280;44539;42.962;1.596;2023-04-05T04:39:47;97379.00;;;0.65;100.00
58771;BME280;44539;42.962;1.596;2023-04-05T04:42:16;97385.91;;;0.66;100.00
58771;BME280;44539;42.962;1.596;2023-04-05T04:44:47;97381.09;;;0.59;100.00
58771;BME280;44539;42.962;1.596;2023-04-05T04:47:13;97384.25;;;0.65;100.00
58771;BME280;44539;42.962;1.596;2023-04-05T04:49:42;97391.00;;;0.80;100.00
58771;BME280;44539;42.962;1.596;2023-04-05T04:52:07;97384.25;;;0.65;100.00
58771;BME280;44539;42.962;1.596;2023-04-05T04:54:34;97384.03;;;0.55;100.00
58771;BME280;44539;42.962;1.596;2023-04-05T04:57:00;97386.91;;;0.26;100.00
58771;BME280;44539;42.962;1.596;2023-04-05T04:59:27;97394.00;;;0.37;100.00
58771;BME280;44539;42.962;1.596;2023-04-05T05:01:52;97394.50;;;0.16;100.00
58771;BME280;44539;42.962;1.596;2023-04-05T05:04:17;97386.56;;;0.31;100.00
58771;BME280;44539;42.962;1.596;2023-04-05T05:06:43;97394.50;;;0.42;100.00
58771;BME280;44539;42.962;1.596;2023-04-05T05:09:08;97397.44;;;0.37;100.00
58771;BME280;44539;42.962;1.596;2023-04-05T05:11:34;97397.84;;;0.31;100.00
58771;BME280;44539;42.962;1.596;2023-04-05T05:13:59;97399.53;;;0.19;100.00
58771;BME280;44539;42.962;1.596;2023-04-05T05:16:25;97391.78;;;0.56;100.00
58771;BME280;44539;42.962;1.596;2023-04-05T05:18:51;97401.94;;;0.35;100.00
58771;BME280;44539;42.962;1.596;2023-04-05T05:21:17;97407.25;;;0.34;100.00
58771;BME280;44539;42.962;1.596;2023-04-05T05:23:42;97406.44;;;0.20;100.00
58771;BME280;44539;42.962;1.596;2023-04-05T05:26:08;97414.66;;;0.02;100.00
58771;BME280;44539;42.962;1.596;2023-04-05T05:28:34;97414.66;;;0.02;100.00
58771;BME280;44539;42.962;1.596;2023-04-05T05:31:02;97411.66;;;0.20;100.00
58771;BME280;44539;42.962;1.596;2023-04-05T05:33:27;97410.59;;;0.36;100.00
58771;BME280;44539;42.962;1.596;2023-04-05T05:35:53;97411.00;;;0.43;100.00
58771;BME280;44539;42.962;1.596;2023-04-05T05:38:18;97415.00;;;0.23;100.00
58771;BME280;44539;42.962;1.596;2023-04-05T05:40:43;97405.69;;;0.06;100.00
58771;BME280;44539;42.962;1.596;2023-04-05T05:43:09;97410.72;;;0.09;100.00
58771;BME280;44539;42.962;1.596;2023-04-05T05:45:35;97411.25;;;0.27;100.00
58771;BME280;44539;42.962;1.596;2023-04-05T05:48:01;97410.59;;;0.10;100.00
58771;BME280;44539;42.962;1.596;2023-04-05T05:50:26;97413.94;;;0.12;100.00
58771;BME280;44539;42.962;1.596;2023-04-05T05:52:52;97416.25;;;0.30;100.00
58771;BME280;44539;42.962;1.596;2023-04-05T05:55:17;97416.88;;;0.20;100.00
58771;BME280;44539;42.962;1.596;2023-04-05T05:57:43;97420.88;;;0.26;100.00
58771;BME280;44539;42.962;1.596;2023-04-05T06:00:09;97421.47;;;0.30;100.00
58771;BME280;44539;42.962;1.596;2023-04-05T06:02:35;97415.41;;;0.16;100.00
58771;BME280;44539;42.962;1.596;2023-04-05T06:05:01;97412.91;;;0.28;100.00
58771;BME280;44539;42.962;1.596;2023-04-05T06:07:27;97428.47;;;0.29;100.00
58771;BME280;44539;42.962;1.596;2023-04-05T06:09:52;97427.13;;;0.24;100.00
58771;BME280;44539;42.962;1.596;2023-04-05T06:12:21;97433.28;;;0.48;100.00
58771;BME280;44539;42.962;1.596;2023-04-05T06:14:46;97429.28;;;0.55;100.00
58771;BME280;44539;42.962;1.596;2023-04-05T06:17:11;97425.75;;;0.56;100.00
58771;BME280;44539;42.962;1.596;2023-04-05T06:19:37;97430.75;;;0.59;100.00
58771;BME280;44539;42.962;1.596;2023-04-05T06:22:02;97424.81;;;0.45;100.00
58771;BME280;44539;42.962;1.596;2023-04-05T06:24:28;97430.66;;;0.61;100.00
58771;BME280;44539;42.962;1.596;2023-04-05T06:26:56;97425.44;;;0.61;100.00
58771;BME280;44539;42.962;1.596;2023-04-05T06:29:22;97413.28;;;0.86;100.00
58771;BME280;44539;42.962;1.596;2023-04-05T06:31:47;97418.78;;;0.94;100.00
58771;BME280;44539;42.962;1.596;2023-04-05T06:34:13;97404.44;;;0.99;100.00
58771;BME280;44539;42.962;1.596;2023-04-05T06:36:38;97414.34;;;1.07;100.00
58771;BME280;44539;42.962;1.596;2023-04-05T06:39:04;97400.28;;;0.84;100.00
58771;BME280;44539;42.962;1.596;2023-04-05T06:41:29;97398.59;;;0.83;100.00
58771;BME280;44539;42.962;1.596;2023-04-05T06:43:55;97395.13;;;0.95;100.00
58771;BME280;44539;42.962;1.596;2023-04-05T06:46:21;97400.38;;;0.95;100.00
58771;BME280;44539;42.962;1.596;2023-04-05T06:48:46;97390.13;;;0.92;100.00
58771;BME280;44539;42.962;1.596;2023-04-05T06:51:13;97392.44;;;0.84;100.00
58771;BME280;44539;42.962;1.596;2023-04-05T06:53:39;97390.28;;;1.02;100.00
58771;BME280;44539;42.962;1.596;2023-04-05T06:56:04;97388.31;;;1.30;100.00
58771;BME280;44539;42.962;1.596;2023-04-05T06:58:30;97386.53;;;1.30;100.00
58771;BME280;44539;42.962;1.596;2023-04-05T07:00:55;97391.97;;;1.27;100.00
58771;BME280;44539;42.962;1.596;2023-04-05T07:03:21;97394.44;;;1.41;100.00
58771;BME280;44539;42.962;1.596;2023-04-05T07:05:53;97399.81;;;1.51;100.00
58771;BME280;44539;42.962;1.596;2023-04-05T07:08:19;97403.78;;;1.57;100.00
58771;BME280;44539;42.962;1.596;2023-04-05T07:10:46;97409.41;;;1.63;100.00
58771;BME280;44539;42.962;1.596;2023-04-05T07:13:11;97403.72;;;1.70;100.00
58771;BME280;44539;42.962;1.596;2023-04-05T07:15:37;97403.38;;;1.86;100.00
58771;BME280;44539;42.962;1.596;2023-04-05T07:18:02;97403.09;;;2.01;100.00
58771;BME280;44539;42.962;1.596;2023-04-05T07:20:28;97401.00;;;2.40;100.00
58771;BME280;44539;42.962;1.596;2023-04-05T07:22:53;97398.63;;;2.71;100.00
58771;BME280;44539;42.962;1.596;2023-04-05T07:25:18;97400.06;;;2.86;100.00
58771;BME280;44539;42.962;1.596;2023-04-05T07:27:44;97406.59;;;3.03;100.00
58771;BME280;44539;42.962;1.596;2023-04-05T07:30:09;97404.16;;;3.23;100.00
58771;BME280;44539;42.962;1.596;2023-04-05T07:32:35;97405.16;;;3.54;98.84
58771;BME280;44539;42.962;1.596;2023-04-05T07:35:00;97404.28;;;3.86;97.27
58771;BME280;44539;42.962;1.596;2023-04-05T07:37:26;97399.38;;;3.93;100.00
58771;BME280;44539;42.962;1.596;2023-04-05T07:39:51;97400.44;;;4.11;100.00
58771;BME280;44539;42.962;1.596;2023-04-05T07:42:17;97407.34;;;4.33;100.00
58771;BME280;44539;42.962;1.596;2023-04-05T07:44:45;97409.91;;;4.44;96.81
58771;BME280;44539;42.962;1.596;2023-04-05T07:47:10;97405.16;;;4.59;96.99
58771;BME280;44539;42.962;1.596;2023-04-05T07:49:36;97412.84;;;4.82;95.70
58771;BME280;44539;42.962;1.596;2023-04-05T07:52:02;97409.91;;;5.06;88.36
58771;BME280;44539;42.962;1.596;2023-04-05T07:54:30;97419.38;;;5.28;84.58
58771;BME280;44539;42.962;1.596;2023-04-05T07:56:56;97424.91;;;5.35;86.79
58771;BME280;44539;42.962;1.596;2023-04-05T07:59:22;97413.59;;;5.53;86.53
58771;BME280;44539;42.962;1.596;2023-04-05T08:01:48;97412.91;;;5.71;79.62
58771;BME280;44539;42.962;1.596;2023-04-05T08:04:13;97409.16;;;5.64;84.17
58771;BME280;44539;42.962;1.596;2023-04-05T08:06:39;97423.72;;;5.87;79.65
58771;BME280;44539;42.962;1.596;2023-04-05T08:09:04;97425.81;;;6.03;81.22
58771;BME280;44539;42.962;1.596;2023-04-05T08:11:30;97412.78;;;6.11;75.48
58771;BME280;44539;42.962;1.596;2023-04-05T08:13:56;97414.69;;;6.39;74.50
58771;BME280;44539;42.962;1.596;2023-04-05T08:16:22;97420.19;;;6.55;75.79
58771;BME280;44539;42.962;1.596;2023-04-05T08:18:47;97420.72;;;6.59;76.45
58771;BME280;44539;42.962;1.596;2023-04-05T08:21:12;97417.06;;;6.79;73.62
58771;BME280;44539;42.962;1.596;2023-04-05T08:23:38;97418.94;;;6.97;72.92
58771;BME280;44539;42.962;1.596;2023-04-05T08:26:03;97412.94;;;7.04;71.64
58771;BME280;44539;42.962;1.596;2023-04-05T08:28:29;97415.06;;;7.19;72.55
58771;BME280;44539;42.962;1.596;2023-04-05T08:30:54;97411.34;;;7.39;71.18
58771;BME280;44539;42.962;1.596;2023-04-05T08:33:22;97416.25;;;7.52;66.60
58771;BME280;44539;42.962;1.596;2023-04-05T08:35:47;97410.38;;;7.76;66.87
58771;BME280;44539;42.962;1.596;2023-04-05T08:38:12;97411.56;;;8.00;68.62
58771;BME280;44539;42.962;1.596;2023-04-05T08:40:42;97407.50;;;8.05;69.21
58771;BME280;44539;42.962;1.596;2023-04-05T08:45:49;97412.53;;;8.34;65.57
58771;BME280;44539;42.962;1.596;2023-04-05T08:48:16;97404.81;;;8.41;64.50
58771;BME280;44539;42.962;1.596;2023-04-05T08:50:48;97403.19;;;8.48;66.44
58771;BME280;44539;42.962;1.596;2023-04-05T08:53:13;97402.09;;;8.59;64.70
58771;BME280;44539;42.962;1.596;2023-04-05T08:55:39;97405.19;;;8.81;66.56
58771;BME280;44539;42.962;1.596;2023-04-05T08:58:12;97401.63;;;8.90;64.60
58771;BME280;44539;42.962;1.596;2023-04-05T09:00:38;97395.38;;;8.99;63.12
58771;BME280;44539;42.962;1.596;2023-04-05T09:03:05;97399.22;;;9.13;63.09
58771;BME280;44539;42.962;1.596;2023-04-05T09:05:31;97401.41;;;9.26;64.45
58771;BME280;44539;42.962;1.596;2023-04-05T09:07:58;97399.13;;;9.31;69.05
58771;BME280;44539;42.962;1.596;2023-04-05T09:10:24;97399.50;;;9.52;65.08
58771;BME280;44539;42.962;1.596;2023-04-05T09:12:51;97403.50;;;9.56;65.49
58771;BME280;44539;42.962;1.596;2023-04-05T09:15:17;97391.09;;;9.73;60.72
58771;BME280;44539;42.962;1.596;2023-04-05T09:17:46;97394.06;;;9.78;59.50
58771;BME280;44539;42.962;1.596;2023-04-05T09:20:11;97394.94;;;9.95;59.08
58771;BME280;44539;42.962;1.596;2023-04-05T09:22:46;97391.94;;;9.98;59.87
58771;BME280;44539;42.962;1.596;2023-04-05T09:25:32;97393.75;;;9.98;58.41
58771;BME280;44539;42.962;1.596;2023-04-05T09:27:59;97377.34;;;10.11;56.74
58771;BME280;44539;42.962;1.596;2023-04-05T09:30:26;97376.19;;;10.05;55.88
58771;BME280;44539;42.962;1.596;2023-04-05T09:32:53;97381.97;;;10.17;58.38
58771;BME280;44539;42.962;1.596;2023-04-05T09:35:24;97378.97;;;10.28;57.75
58771;BME280;44539;42.962;1.596;2023-04-05T09:37:55;97378.53;;;10.33;57.89
58771;BME280;44539;42.962;1.596;2023-04-05T09:40:21;97374.88;;;10.34;56.78
58771;BME280;44539;42.962;1.596;2023-04-05T09:42:47;97382.31;;;10.38;55.66
58771;BME280;44539;42.962;1.596;2023-04-05T09:45:14;97381.47;;;10.54;53.98
58771;BME280;44539;42.962;1.596;2023-04-05T09:47:40;97364.22;;;10.58;53.31
58771;BME280;44539;42.962;1.596;2023-04-05T09:52:41;97376.59;;;10.74;53.52
58771;BME280;44539;42.962;1.596;2023-04-05T09:55:07;97357.47;;;10.87;55.03
58771;BME280;44539;42.962;1.596;2023-04-05T09:57:36;97371.91;;;10.93;51.02
58771;BME280;44539;42.962;1.596;2023-04-05T10:00:03;97362.50;;;11.13;51.68
58771;BME280;44539;42.962;1.596;2023-04-05T10:02:38;97364.22;;;10.98;52.04
58771;BME280;44539;42.962;1.596;2023-04-05T10:05:08;97360.06;;;11.03;53.25
58771;BME280;44539;42.962;1.596;2023-04-05T10:07:40;97348.94;;;11.00;52.87
58771;BME280;44539;42.962;1.596;2023-04-05T10:10:07;97352.16;;;11.27;49.07
58771;BME280;44539;42.962;1.596;2023-04-05T10:12:37;97353.78;;;11.59;48.92
58771;BME280;44539;42.962;1.596;2023-04-05T10:15:03;97345.69;;;11.52;50.68
58771;BME280;44539;42.962;1.596;2023-04-05T10:30:46;97333.28;;;11.91;52.19
58771;BME280;44539;42.962;1.596;2023-04-05T10:33:29;97329.63;;;11.83;50.05
58771;BME280;44539;42.962;1.596;2023-04-05T10:41:20;97319.53;;;11.79;50.80
58771;BME280;44539;42.962;1.596;2023-04-05T10:43:45;97322.81;;;11.89;48.47
58771;BME280;44539;42.962;1.596;2023-04-05T10:46:20;97316.19;;;12.23;47.63
58771;BME280;44539;42.962;1.596;2023-04-05T10:51:33;97315.25;;;12.16;43.46
58771;BME280;44539;42.962;1.596;2023-04-05T10:53:59;97315.31;;;12.08;43.55
58771;BME280;44539;42.962;1.596;2023-04-05T10:56:25;97314.69;;;12.20;45.84
58771;BME280;44539;42.962;1.596;2023-04-05T10:58:52;97308.00;;;12.39;47.86
58771;BME280;44539;42.962;1.596;2023-04-05T11:01:18;97304.81;;;12.29;40.58
58771;BME280;44539;42.962;1.596;2023-04-05T11:03:49;97298.84;;;12.42;40.62
58771;BME280;44539;42.962;1.596;2023-04-05T11:06:24;97295.34;;;12.71;38.65
58771;BME280;44539;42.962;1.596;2023-04-05T11:09:18;97297.13;;;13.00;39.62
58771;BME280;44539;42.962;1.596;2023-04-05T11:11:49;97289.97;;;12.86;42.29
58771;BME280;44539;42.962;1.596;2023-04-05T11:14:25;97279.25;;;13.31;41.13
58771;BME280;44539;42.962;1.596;2023-04-05T11:16:54;97285.06;;;13.19;38.63
58771;BME280;44539;42.962;1.596;2023-04-05T11:22:13;97285.28;;;13.39;37.13
58771;BME280;44539;42.962;1.596;2023-04-05T11:24:55;97274.13;;;13.72;36.72
58771;BME280;44539;42.962;1.596;2023-04-05T11:27:29;97279.19;;;13.67;36.19
58771;BME280;44539;42.962;1.596;2023-04-05T11:29:59;97265.53;;;14.05;36.79
58771;BME280;44539;42.962;1.596;2023-04-05T11:32:44;97264.75;;;13.83;36.13
58771;BME280;44539;42.962;1.596;2023-04-05T11:35:17;97268.78;;;14.00;36.70
58771;BME280;44539;42.962;1.596;2023-04-05T11:43:05;97253.56;;;14.29;31.92
58771;BME280;44539;42.962;1.596;2023-04-05T11:45:33;97268.66;;;14.43;31.57
58771;BME280;44539;42.962;1.596;2023-04-05T11:48:03;97270.50;;;14.78;34.59
58771;BME280;44539;42.962;1.596;2023-04-05T11:50:29;97270.78;;;14.89;31.04
58771;BME280;44539;42.962;1.596;2023-04-05T11:53:11;97265.66;;;15.01;30.71
58771;BME280;44539;42.962;1.596;2023-04-05T11:55:45;97270.63;;;15.04;27.77
58771;BME280;44539;42.962;1.596;2023-04-05T11:58:16;97255.41;;;15.05;26.12
58771;BME280;44539;42.962;1.596;2023-04-05T12:00:44;97257.25;;;15.04;25.09
58771;BME280;44539;42.962;1.596;2023-04-05T12:03:19;97266.47;;;14.95;30.20
58771;BME280;44539;42.962;1.596;2023-04-05T12:08:13;97261.09;;;14.47;31.22
58771;BME280;44539;42.962;1.596;2023-04-05T12:10:38;97261.50;;;14.50;36.71
58771;BME280;44539;42.962;1.596;2023-04-05T12:13:03;97249.66;;;14.60;30.87
58771;BME280;44539;42.962;1.596;2023-04-05T12:15:29;97255.38;;;14.92;34.07
58771;BME280;44539;42.962;1.596;2023-04-05T12:17:55;97250.88;;;15.12;34.57
58771;BME280;44539;42.962;1.596;2023-04-05T12:20:22;97253.09;;;14.95;29.55
58771;BME280;44539;42.962;1.596;2023-04-05T12:22:50;97255.25;;;15.26;29.51
58771;BME280;44539;42.962;1.596;2023-04-05T12:25:17;97241.50;;;15.49;30.94
58771;BME280;44539;42.962;1.596;2023-04-05T12:27:43;97245.66;;;15.72;34.44
58771;BME280;44539;42.962;1.596;2023-04-05T12:32:51;97238.66;;;15.78;34.88
58771;BME280;44539;42.962;1.596;2023-04-05T12:37:42;97233.47;;;15.56;30.24
58771;BME280;44539;42.962;1.596;2023-04-05T12:40:08;97241.09;;;15.59;33.39
58771;BME280;44539;42.962;1.596;2023-04-05T12:42:35;97236.81;;;15.78;32.48
58771;BME280;44539;42.962;1.596;2023-04-05T12:45:09;97222.56;;;15.71;31.46
58771;BME280;44539;42.962;1.596;2023-04-05T12:47:56;97237.63;;;15.92;30.79
58771;BME280;44539;42.962;1.596;2023-04-05T12:50:27;97226.25;;;15.30;28.17
58771;BME280;44539;42.962;1.596;2023-04-05T12:52:58;97217.22;;;15.71;30.43
58771;BME280;44539;42.962;1.596;2023-04-05T12:55:25;97223.22;;;15.80;31.56
58771;BME280;44539;42.962;1.596;2023-04-05T12:57:51;97220.94;;;15.90;32.90
58771;BME280;44539;42.962;1.596;2023-04-05T13:00:18;97221.72;;;16.10;28.76
58771;BME280;44539;42.962;1.596;2023-04-05T13:02:48;97218.84;;;16.12;31.50
58771;BME280;44539;42.962;1.596;2023-04-05T13:05:15;97216.59;;;16.16;33.33
58771;BME280;44539;42.962;1.596;2023-04-05T13:07:41;97217.59;;;16.21;31.86
58771;BME280;44539;42.962;1.596;2023-04-05T13:10:07;97227.22;;;16.49;31.78
58771;BME280;44539;42.962;1.596;2023-04-05T13:12:32;97216.06;;;16.59;30.75
58771;BME280;44539;42.962;1.596;2023-04-05T13:14:58;97215.03;;;16.53;32.99
58771;BME280;44539;42.962;1.596;2023-04-05T13:17:23;97209.59;;;16.01;32.58
58771;BME280;44539;42.962;1.596;2023-04-05T13:19:48;97210.00;;;15.91;29.20
58771;BME280;44539;42.962;1.596;2023-04-05T13:22:14;97199.28;;;16.05;30.66
58771;BME280;44539;42.962;1.596;2023-04-05T13:24:39;97203.59;;;15.59;30.69
58771;BME280;44539;42.962;1.596;2023-04-05T13:27:05;97203.59;;;16.06;36.14
58771;BME280;44539;42.962;1.596;2023-04-05T13:29:30;97200.13;;;16.64;33.71
58771;BME280;44539;42.962;1.596;2023-04-05T13:31:56;97194.88;;;16.37;31.38
58771;BME280;44539;42.962;1.596;2023-04-05T13:34:21;97202.13;;;16.23;32.63
58771;BME280;44539;42.962;1.596;2023-04-05T13:36:46;97193.72;;;16.71;34.44
58771;BME280;44539;42.962;1.596;2023-04-05T13:39:13;97194.13;;;16.75;35.57
58771;BME280;44539;42.962;1.596;2023-04-05T13:41:38;97204.50;;;17.10;33.95
58771;BME280;44539;42.962;1.596;2023-04-05T13:44:03;97196.63;;;16.70;33.60
58771;BME280;44539;42.962;1.596;2023-04-05T13:46:29;97191.81;;;16.79;35.49
58771;BME280;44539;42.962;1.596;2023-04-05T13:48:55;97200.19;;;16.50;36.92
58771;BME280;44539;42.962;1.596;2023-04-05T13:51:20;97193.44;;;16.41;37.41
58771;BME280;44539;42.962;1.596;2023-04-05T13:53:45;97185.00;;;16.89;36.48
58771;BME280;44539;42.962;1.596;2023-04-05T13:56:11;97188.56;;;17.15;35.02